sensor_id;sensor_type;location;lat;lon;timestamp;pressure;altitude;pressure_sealevel;temperature;humidity
74079;BME280;62437;51.544;-3.276;2023-03-26T00:02:02;99476.59;;;7.62;68.37
74079;BME280;62437;51.544;-3.276;2023-03-26T00:04:28;99473.54;;;7.98;67.17
74079;BME280;62437;51.544;-3.276;2023-03-26T00:06:53;99468.07;;;7.78;69.19
74079;BME280;62437;51.544;-3.276;2023-03-26T00:09:19;99464.69;;;8.29;66.47
74079;BME280;62437;51.544;-3.276;2023-03-26T00:11:45;99454.98;;;8.46;65.63
74079;BME280;62437;51.544;-3.276;2023-03-26T00:14:11;99449.84;;;8.56;65.67
74079;BME280;62437;51.544;-3.276;2023-03-26T00:16:36;99451.36;;;6.26;72.20
74079;BME280;62437;51.544;-3.276;2023-03-26T00:19:02;99445.31;;;8.97;63.86
74079;BME280;62437;51.544;-3.276;2023-03-26T00:21:29;99447.03;;;8.61;65.50
74079;BME280;62437;51.544;-3.276;2023-03-26T00:23:54;99444.73;;;6.93;71.81
74079;BME280;62437;51.544;-3.276;2023-03-26T00:26:19;99441.18;;;8.06;67.12
74079;BME280;62437;51.544;-3.276;2023-03-26T00:28:45;99436.81;;;6.53;72.16
74079;BME280;62437;51.544;-3.276;2023-03-26T00:31:13;99435.50;;;8.09;67.09
74079;BME280;62437;51.544;-3.276;2023-03-26T00:33:37;99429.79;;;7.63;68.84
74079;BME280;62437;51.544;-3.276;2023-03-26T00:36:03;99423.68;;;6.02;73.42
74079;BME280;62437;51.544;-3.276;2023-03-26T00:38:27;99420.08;;;6.50;71.79
74079;BME280;62437;51.544;-3.276;2023-03-26T00:40:54;99418.47;;;7.05;70.24
74079;BME280;62437;51.544;-3.276;2023-03-26T00:43:20;99404.77;;;9.18;62.44
74079;BME280;62437;51.544;-3.276;2023-03-26T00:45:45;99404.03;;;9.07;63.92
74079;BME280;62437;51.544;-3.276;2023-03-26T00:48:10;99407.95;;;8.02;67.33
74079;BME280;62437;51.544;-3.276;2023-03-26T00:50:36;99403.72;;;6.44;71.51
74079;BME280;62437;51.544;-3.276;2023-03-26T00:53:02;99397.01;;;8.10;66.78
74079;BME280;62437;51.544;-3.276;2023-03-26T00:55:27;99393.08;;;7.14;70.20
74079;BME280;62437;51.544;-3.276;2023-03-26T00:57:53;99386.16;;;9.06;63.52
74079;BME280;62437;51.544;-3.276;2023-03-26T01:00:27;99390.17;;;7.61;67.66
74079;BME280;62437;51.544;-3.276;2023-03-26T01:02:44;99386.01;;;7.33;68.10
74079;BME280;62437;51.544;-3.276;2023-03-26T01:07:36;99379.62;;;7.37;70.02
74079;BME280;62437;51.544;-3.276;2023-03-26T01:10:02;99366.13;;;7.89;66.60
74079;BME280;62437;51.544;-3.276;2023-03-26T01:12:29;99365.54;;;5.97;72.71
74079;BME280;62437;51.544;-3.276;2023-03-26T01:14:55;99360.10;;;5.44;73.60
74079;BME280;62437;51.544;-3.276;2023-03-26T01:17:19;99355.17;;;5.85;72.66
74079;BME280;62437;51.544;-3.276;2023-03-26T01:19:48;99351.43;;;6.73;70.78
74079;BME280;62437;51.544;-3.276;2023-03-26T01:22:13;99345.08;;;5.33;74.52
74079;BME280;62437;51.544;-3.276;2023-03-26T01:24:36;99344.06;;;4.56;76.63
74079;BME280;62437;51.544;-3.276;2023-03-26T01:27:13;99336.45;;;5.06;76.13
74079;BME280;62437;51.544;-3.276;2023-03-26T01:29:32;99329.43;;;6.12;72.04
74079;BME280;62437;51.544;-3.276;2023-03-26T01:32:02;99326.04;;;5.54;72.76
74079;BME280;62437;51.544;-3.276;2023-03-26T01:34:24;99321.30;;;6.75;70.03
74079;BME280;62437;51.544;-3.276;2023-03-26T01:36:50;99332.69;;;8.42;65.27
74079;BME280;62437;51.544;-3.276;2023-03-26T01:39:16;99354.97;;;7.41;69.07
74079;BME280;62437;51.544;-3.276;2023-03-26T01:41:42;99353.77;;;5.14;72.14
74079;BME280;62437;51.544;-3.276;2023-03-26T01:44:07;99352.85;;;4.83;70.42
74079;BME280;62437;51.544;-3.276;2023-03-26T01:46:28;99358.12;;;5.08;73.57
74079;BME280;62437;51.544;-3.276;2023-03-26T01:48:53;99354.31;;;5.99;73.60
74079;BME280;62437;51.544;-3.276;2023-03-26T01:51:27;99353.87;;;5.10;72.35
74079;BME280;62437;51.544;-3.276;2023-03-26T01:53:46;99355.29;;;5.99;69.40
74079;BME280;62437;51.544;-3.276;2023-03-26T01:56:14;99354.68;;;5.31;73.11
74079;BME280;62437;51.544;-3.276;2023-03-26T01:58:42;99354.46;;;6.93;68.69
74079;BME280;62437;51.544;-3.276;2023-03-26T02:01:09;99357.13;;;6.54;68.74
74079;BME280;62437;51.544;-3.276;2023-03-26T02:03:30;99357.60;;;6.01;69.51
74079;BME280;62437;51.544;-3.276;2023-03-26T02:05:57;99356.42;;;6.41;69.69
74079;BME280;62437;51.544;-3.276;2023-03-26T02:08:23;99357.00;;;5.86;69.64
74079;BME280;62437;51.544;-3.276;2023-03-26T02:10:46;99352.11;;;5.31;68.25
74079;BME280;62437;51.544;-3.276;2023-03-26T02:13:10;99354.17;;;4.61;72.65
74079;BME280;62437;51.544;-3.276;2023-03-26T02:15:36;99354.83;;;5.73;70.78
74079;BME280;62437;51.544;-3.276;2023-03-26T02:18:01;99348.14;;;7.03;66.06
74079;BME280;62437;51.544;-3.276;2023-03-26T02:20:27;99345.74;;;5.22;70.17
74079;BME280;62437;51.544;-3.276;2023-03-26T02:22:53;99350.15;;;4.15;73.88
74079;BME280;62437;51.544;-3.276;2023-03-26T02:25:19;99350.47;;;4.18;74.88
74079;BME280;62437;51.544;-3.276;2023-03-26T02:27:47;99348.24;;;3.73;74.59
74079;BME280;62437;51.544;-3.276;2023-03-26T02:30:13;99345.68;;;3.63;78.05
74079;BME280;62437;51.544;-3.276;2023-03-26T02:32:36;99347.50;;;3.49;77.38
74079;BME280;62437;51.544;-3.276;2023-03-26T02:35:02;99345.02;;;3.48;77.54
74079;BME280;62437;51.544;-3.276;2023-03-26T02:37:27;99341.93;;;3.18;77.41
74079;BME280;62437;51.544;-3.276;2023-03-26T02:39:53;99342.37;;;3.96;75.33
74079;BME280;62437;51.544;-3.276;2023-03-26T02:42:18;99336.72;;;3.55;77.05
74079;BME280;62437;51.544;-3.276;2023-03-26T02:44:44;99333.19;;;3.71;77.43
74079;BME280;62437;51.544;-3.276;2023-03-26T02:47:10;99335.44;;;3.41;78.03
74079;BME280;62437;51.544;-3.276;2023-03-26T02:49:35;99335.40;;;3.35;77.77
74079;BME280;62437;51.544;-3.276;2023-03-26T02:52:01;99335.38;;;3.28;78.60
74079;BME280;62437;51.544;-3.276;2023-03-26T02:54:27;99336.33;;;3.74;78.12
74079;BME280;62437;51.544;-3.276;2023-03-26T02:56:53;99333.79;;;3.88;77.64
74079;BME280;62437;51.544;-3.276;2023-03-26T02:59:18;99330.84;;;3.32;77.62
74079;BME280;62437;51.544;-3.276;2023-03-26T03:01:44;99330.79;;;3.44;78.28
74079;BME280;62437;51.544;-3.276;2023-03-26T03:04:11;99329.02;;;4.65;74.79
74079;BME280;62437;51.544;-3.276;2023-03-26T03:06:36;99326.39;;;5.01;71.96
74079;BME280;62437;51.544;-3.276;2023-03-26T03:09:01;99330.41;;;3.93;76.38
74079;BME280;62437;51.544;-3.276;2023-03-26T03:11:27;99327.06;;;5.43;73.09
74079;BME280;62437;51.544;-3.276;2023-03-26T03:13:53;99326.81;;;4.99;71.48
74079;BME280;62437;51.544;-3.276;2023-03-26T03:16:19;99332.22;;;4.27;73.83
74079;BME280;62437;51.544;-3.276;2023-03-26T03:18:44;99329.78;;;4.07;75.19
74079;BME280;62437;51.544;-3.276;2023-03-26T03:21:10;99328.25;;;5.21;72.95
74079;BME280;62437;51.544;-3.276;2023-03-26T03:23:36;99327.90;;;4.52;73.53
74079;BME280;62437;51.544;-3.276;2023-03-26T03:26:02;99325.46;;;4.88;70.86
74079;BME280;62437;51.544;-3.276;2023-03-26T03:28:27;99326.91;;;3.95;73.32
74079;BME280;62437;51.544;-3.276;2023-03-26T03:30:53;99327.14;;;3.61;75.02
74079;BME280;62437;51.544;-3.276;2023-03-26T03:33:19;99326.79;;;3.40;76.78
74079;BME280;62437;51.544;-3.276;2023-03-26T03:35:44;99327.93;;;3.45;78.62
74079;BME280;62437;51.544;-3.276;2023-03-26T03:38:10;99329.94;;;3.52;78.23
74079;BME280;62437;51.544;-3.276;2023-03-26T03:40:36;99327.07;;;3.58;78.48
74079;BME280;62437;51.544;-3.276;2023-03-26T03:43:01;99325.99;;;3.61;77.38
74079;BME280;62437;51.544;-3.276;2023-03-26T03:45:27;99325.55;;;3.41;78.79
74079;BME280;62437;51.544;-3.276;2023-03-26T03:47:53;99327.87;;;3.66;77.84
74079;BME280;62437;51.544;-3.276;2023-03-26T03:50:19;99327.71;;;3.40;77.67
74079;BME280;62437;51.544;-3.276;2023-03-26T03:52:45;99330.08;;;3.16;78.10
74079;BME280;62437;51.544;-3.276;2023-03-26T03:55:10;99332.69;;;3.15;78.33
74079;BME280;62437;51.544;-3.276;2023-03-26T03:57:36;99331.97;;;3.53;78.62
74079;BME280;62437;51.544;-3.276;2023-03-26T04:00:02;99331.64;;;3.29;78.76
74079;BME280;62437;51.544;-3.276;2023-03-26T04:02:27;99330.09;;;3.66;78.08
74079;BME280;62437;51.544;-3.276;2023-03-26T04:04:53;99332.14;;;3.50;77.71
74079;BME280;62437;51.544;-3.276;2023-03-26T04:07:19;99331.00;;;3.56;78.63
74079;BME280;62437;51.544;-3.276;2023-03-26T04:09:45;99332.30;;;3.23;78.31
74079;BME280;62437;51.544;-3.276;2023-03-26T04:12:11;99334.66;;;2.91;78.74
74079;BME280;62437;51.544;-3.276;2023-03-26T04:14:36;99332.83;;;3.24;77.86
74079;BME280;62437;51.544;-3.276;2023-03-26T04:17:02;99336.97;;;3.03;78.45
74079;BME280;62437;51.544;-3.276;2023-03-26T04:19:27;99338.07;;;3.09;79.39
74079;BME280;62437;51.544;-3.276;2023-03-26T04:21:53;99337.72;;;3.08;79.32
74079;BME280;62437;51.544;-3.276;2023-03-26T04:24:19;99339.82;;;2.90;79.54
74079;BME280;62437;51.544;-3.276;2023-03-26T04:26:45;99341.81;;;3.02;79.05
74079;BME280;62437;51.544;-3.276;2023-03-26T04:29:11;99342.50;;;3.19;79.80
74079;BME280;62437;51.544;-3.276;2023-03-26T04:31:36;99343.97;;;2.93;78.89
74079;BME280;62437;51.544;-3.276;2023-03-26T04:34:06;99346.87;;;3.10;80.30
74079;BME280;62437;51.544;-3.276;2023-03-26T04:36:29;99351.43;;;3.14;79.11
74079;BME280;62437;51.544;-3.276;2023-03-26T04:38:55;99352.43;;;3.11;80.27
74079;BME280;62437;51.544;-3.276;2023-03-26T04:41:19;99353.10;;;3.32;79.34
74079;BME280;62437;51.544;-3.276;2023-03-26T04:43:45;99355.58;;;3.20;78.38
74079;BME280;62437;51.544;-3.276;2023-03-26T04:46:11;99354.94;;;3.31;78.64
74079;BME280;62437;51.544;-3.276;2023-03-26T04:48:36;99356.88;;;3.36;78.51
74079;BME280;62437;51.544;-3.276;2023-03-26T04:51:02;99360.61;;;3.35;78.98
74079;BME280;62437;51.544;-3.276;2023-03-26T04:53:28;99360.64;;;3.42;78.44
74079;BME280;62437;51.544;-3.276;2023-03-26T04:55:57;99366.91;;;3.13;78.10
74079;BME280;62437;51.544;-3.276;2023-03-26T04:58:19;99364.80;;;3.33;77.82
74079;BME280;62437;51.544;-3.276;2023-03-26T05:00:45;99366.40;;;3.28;78.17
74079;BME280;62437;51.544;-3.276;2023-03-26T05:03:11;99363.63;;;3.10;77.13
74079;BME280;62437;51.544;-3.276;2023-03-26T05:05:37;99368.85;;;3.11;78.89
74079;BME280;62437;51.544;-3.276;2023-03-26T05:08:03;99361.40;;;3.68;76.55
74079;BME280;62437;51.544;-3.276;2023-03-26T05:10:28;99361.77;;;3.39;77.45
74079;BME280;62437;51.544;-3.276;2023-03-26T05:12:54;99361.09;;;3.27;76.53
74079;BME280;62437;51.544;-3.276;2023-03-26T05:15:20;99361.99;;;3.09;77.20
74079;BME280;62437;51.544;-3.276;2023-03-26T05:17:45;99363.14;;;3.02;78.44
74079;BME280;62437;51.544;-3.276;2023-03-26T05:20:16;99367.12;;;3.19;78.12
74079;BME280;62437;51.544;-3.276;2023-03-26T05:22:37;99365.50;;;3.41;78.45
74079;BME280;62437;51.544;-3.276;2023-03-26T05:25:03;99367.29;;;3.24;76.12
74079;BME280;62437;51.544;-3.276;2023-03-26T05:27:28;99371.18;;;4.14;73.52
74079;BME280;62437;51.544;-3.276;2023-03-26T05:29:59;99375.98;;;3.60;74.82
74079;BME280;62437;51.544;-3.276;2023-03-26T05:32:20;99377.81;;;3.94;73.88
74079;BME280;62437;51.544;-3.276;2023-03-26T05:34:45;99383.10;;;3.29;76.54
74079;BME280;62437;51.544;-3.276;2023-03-26T05:37:11;99389.83;;;2.80;77.48
74079;BME280;62437;51.544;-3.276;2023-03-26T05:39:37;99392.02;;;2.96;77.71
74079;BME280;62437;51.544;-3.276;2023-03-26T05:42:03;99396.96;;;2.84;77.82
74079;BME280;62437;51.544;-3.276;2023-03-26T05:44:28;99400.01;;;2.76;78.42
74079;BME280;62437;51.544;-3.276;2023-03-26T05:46:54;99401.21;;;3.14;78.43
74079;BME280;62437;51.544;-3.276;2023-03-26T05:49:20;99407.50;;;2.78;78.11
74079;BME280;62437;51.544;-3.276;2023-03-26T05:51:46;99408.88;;;2.73;78.98
74079;BME280;62437;51.544;-3.276;2023-03-26T05:54:11;99413.77;;;2.73;79.07
74079;BME280;62437;51.544;-3.276;2023-03-26T05:56:37;99411.87;;;2.68;78.76
74079;BME280;62437;51.544;-3.276;2023-03-26T05:59:03;99415.28;;;2.64;78.68
74079;BME280;62437;51.544;-3.276;2023-03-26T06:01:29;99420.14;;;2.80;79.39
74079;BME280;62437;51.544;-3.276;2023-03-26T06:03:54;99426.30;;;2.51;79.24
74079;BME280;62437;51.544;-3.276;2023-03-26T06:06:20;99430.22;;;2.81;78.75
74079;BME280;62437;51.544;-3.276;2023-03-26T06:08:48;99435.05;;;2.52;78.94
74079;BME280;62437;51.544;-3.276;2023-03-26T06:11:12;99440.46;;;2.77;78.38
74079;BME280;62437;51.544;-3.276;2023-03-26T06:16:05;99453.02;;;2.43;78.44
74079;BME280;62437;51.544;-3.276;2023-03-26T06:18:29;99458.52;;;2.70;78.70
74079;BME280;62437;51.544;-3.276;2023-03-26T06:20:54;99461.32;;;3.12;78.92
74079;BME280;62437;51.544;-3.276;2023-03-26T06:23:20;99467.56;;;2.72;79.08
74079;BME280;62437;51.544;-3.276;2023-03-26T06:25:46;99472.59;;;2.92;78.76
74079;BME280;62437;51.544;-3.276;2023-03-26T06:28:12;99476.94;;;3.01;77.50
74079;BME280;62437;51.544;-3.276;2023-03-26T06:30:38;99481.16;;;2.66;77.16
74079;BME280;62437;51.544;-3.276;2023-03-26T06:33:03;99482.24;;;2.56;78.97
74079;BME280;62437;51.544;-3.276;2023-03-26T06:35:29;99487.61;;;2.77;78.50
74079;BME280;62437;51.544;-3.276;2023-03-26T06:37:55;99489.39;;;2.85;78.22
74079;BME280;62437;51.544;-3.276;2023-03-26T06:40:21;99495.63;;;2.78;77.66
74079;BME280;62437;51.544;-3.276;2023-03-26T06:42:46;99498.50;;;2.97;76.68
74079;BME280;62437;51.544;-3.276;2023-03-26T06:45:12;99501.46;;;3.13;77.10
74079;BME280;62437;51.544;-3.276;2023-03-26T06:47:38;99504.94;;;2.80;78.51
74079;BME280;62437;51.544;-3.276;2023-03-26T06:50:04;99506.23;;;2.77;78.51
74079;BME280;62437;51.544;-3.276;2023-03-26T06:52:29;99511.31;;;2.59;77.71
74079;BME280;62437;51.544;-3.276;2023-03-26T06:54:55;99519.12;;;2.62;79.01
74079;BME280;62437;51.544;-3.276;2023-03-26T06:57:21;99523.36;;;2.86;78.79
74079;BME280;62437;51.544;-3.276;2023-03-26T06:59:46;99529.90;;;2.64;79.39
74079;BME280;62437;51.544;-3.276;2023-03-26T07:02:12;99529.97;;;2.35;78.78
74079;BME280;62437;51.544;-3.276;2023-03-26T07:04:38;99536.16;;;2.58;79.29
74079;BME280;62437;51.544;-3.276;2023-03-26T07:07:04;99541.85;;;2.58;79.17
74079;BME280;62437;51.544;-3.276;2023-03-26T07:09:30;99547.58;;;2.66;78.89
74079;BME280;62437;51.544;-3.276;2023-03-26T07:11:55;99552.10;;;2.34;80.06
74079;BME280;62437;51.544;-3.276;2023-03-26T07:14:21;99556.64;;;2.60;79.78
74079;BME280;62437;51.544;-3.276;2023-03-26T07:16:47;99562.21;;;2.71;79.70
74079;BME280;62437;51.544;-3.276;2023-03-26T07:19:12;99564.52;;;2.50;79.38
74079;BME280;62437;51.544;-3.276;2023-03-26T07:21:39;99570.86;;;2.48;80.17
74079;BME280;62437;51.544;-3.276;2023-03-26T07:24:05;99574.89;;;2.44;81.27
74079;BME280;62437;51.544;-3.276;2023-03-26T07:26:35;99579.69;;;2.67;79.69
74079;BME280;62437;51.544;-3.276;2023-03-26T07:28:59;99586.13;;;2.91;80.44
74079;BME280;62437;51.544;-3.276;2023-03-26T07:31:27;99592.74;;;2.60;79.25
74079;BME280;62437;51.544;-3.276;2023-03-26T07:33:54;99596.13;;;2.87;79.42
74079;BME280;62437;51.544;-3.276;2023-03-26T07:36:20;99600.12;;;2.86;79.10
74079;BME280;62437;51.544;-3.276;2023-03-26T07:38:47;99603.24;;;2.93;79.50
74079;BME280;62437;51.544;-3.276;2023-03-26T07:41:07;99606.37;;;2.85;79.37
74079;BME280;62437;51.544;-3.276;2023-03-26T07:43:39;99612.68;;;2.80;78.84
74079;BME280;62437;51.544;-3.276;2023-03-26T07:45:56;99619.32;;;3.08;78.97
74079;BME280;62437;51.544;-3.276;2023-03-26T07:48:23;99622.42;;;2.62;79.14
74079;BME280;62437;51.544;-3.276;2023-03-26T07:50:47;99629.56;;;2.62;80.54
74079;BME280;62437;51.544;-3.276;2023-03-26T07:53:14;99636.57;;;2.71;80.25
74079;BME280;62437;51.544;-3.276;2023-03-26T07:55:45;99641.78;;;2.69;81.26
74079;BME280;62437;51.544;-3.276;2023-03-26T07:58:14;99640.68;;;3.00;80.11
74079;BME280;62437;51.544;-3.276;2023-03-26T08:00:36;99643.75;;;3.17;81.64
74079;BME280;62437;51.544;-3.276;2023-03-26T08:03:10;99643.85;;;2.97;79.73
74079;BME280;62437;51.544;-3.276;2023-03-26T08:05:24;99651.44;;;3.20;79.24
74079;BME280;62437;51.544;-3.276;2023-03-26T08:07:55;99654.93;;;3.06;79.00
74079;BME280;62437;51.544;-3.276;2023-03-26T08:10:16;99662.50;;;2.75;79.98
74079;BME280;62437;51.544;-3.276;2023-03-26T08:12:46;99661.57;;;3.11;78.41
74079;BME280;62437;51.544;-3.276;2023-03-26T08:15:10;99664.82;;;3.74;78.69
74079;BME280;62437;51.544;-3.276;2023-03-26T08:17:33;99668.19;;;3.24;78.39
74079;BME280;62437;51.544;-3.276;2023-03-26T08:20:03;99674.92;;;2.66;80.98
74079;BME280;62437;51.544;-3.276;2023-03-26T08:22:24;99682.39;;;3.41;80.54
74079;BME280;62437;51.544;-3.276;2023-03-26T08:24:58;99691.80;;;3.12;78.72
74079;BME280;62437;51.544;-3.276;2023-03-26T08:27:18;99693.75;;;2.86;79.10
74079;BME280;62437;51.544;-3.276;2023-03-26T08:29:40;99696.25;;;2.87;78.76
74079;BME280;62437;51.544;-3.276;2023-03-26T08:32:08;99703.01;;;3.08;80.43
74079;BME280;62437;51.544;-3.276;2023-03-26T08:34:30;99705.73;;;3.76;77.84
74079;BME280;62437;51.544;-3.276;2023-03-26T08:36:55;99709.09;;;3.49;76.70
74079;BME280;62437;51.544;-3.276;2023-03-26T08:39:21;99715.93;;;3.51;78.19
74079;BME280;62437;51.544;-3.276;2023-03-26T08:44:31;99725.49;;;3.69;76.42
74079;BME280;62437;51.544;-3.276;2023-03-26T08:54:18;99747.88;;;3.33;79.11
74079;BME280;62437;51.544;-3.276;2023-03-26T08:56:26;99751.56;;;3.33;78.36
74079;BME280;62437;51.544;-3.276;2023-03-26T09:03:48;99764.40;;;3.91;77.08
74079;BME280;62437;51.544;-3.276;2023-03-26T09:06:14;99770.63;;;4.20;75.10
74079;BME280;62437;51.544;-3.276;2023-03-26T09:18:31;99791.09;;;5.52;74.69
74079;BME280;62437;51.544;-3.276;2023-03-26T09:23:20;99804.19;;;5.17;75.36
74079;BME280;62437;51.544;-3.276;2023-03-26T09:28:10;99809.87;;;4.47;73.23
74079;BME280;62437;51.544;-3.276;2023-03-26T09:30:34;99814.61;;;5.97;74.50
74079;BME280;62437;51.544;-3.276;2023-03-26T09:33:03;99820.50;;;5.07;73.63
74079;BME280;62437;51.544;-3.276;2023-03-26T09:37:49;99830.07;;;5.62;72.16
74079;BME280;62437;51.544;-3.276;2023-03-26T09:40:13;99836.23;;;6.25;72.44
74079;BME280;62437;51.544;-3.276;2023-03-26T09:42:36;99843.24;;;6.18;72.08
74079;BME280;62437;51.544;-3.276;2023-03-26T09:49:48;99858.92;;;6.80;66.95
74079;BME280;62437;51.544;-3.276;2023-03-26T09:52:23;99870.45;;;5.56;71.27
74079;BME280;62437;51.544;-3.276;2023-03-26T09:54:52;99876.15;;;5.53;74.24
74079;BME280;62437;51.544;-3.276;2023-03-26T09:57:08;99885.12;;;5.47;71.96
74079;BME280;62437;51.544;-3.276;2023-03-26T09:59:46;99900.04;;;4.90;73.38
74079;BME280;62437;51.544;-3.276;2023-03-26T10:02:03;99901.17;;;5.32;73.70
74079;BME280;62437;51.544;-3.276;2023-03-26T10:04:41;99912.02;;;4.95;76.23
74079;BME280;62437;51.544;-3.276;2023-03-26T10:06:52;99923.68;;;5.63;74.49
74079;BME280;62437;51.544;-3.276;2023-03-26T10:09:28;99935.81;;;6.41;70.40
74079;BME280;62437;51.544;-3.276;2023-03-26T10:14:11;99937.98;;;5.84;69.42
74079;BME280;62437;51.544;-3.276;2023-03-26T10:16:37;99942.74;;;5.63;68.95
74079;BME280;62437;51.544;-3.276;2023-03-26T10:19:06;99949.60;;;6.82;71.95
74079;BME280;62437;51.544;-3.276;2023-03-26T10:21:27;99947.62;;;7.12;68.71
74079;BME280;62437;51.544;-3.276;2023-03-26T10:23:59;99958.97;;;6.81;68.57
74079;BME280;62437;51.544;-3.276;2023-03-26T10:26:23;99964.81;;;5.42;71.28
74079;BME280;62437;51.544;-3.276;2023-03-26T10:28:51;99969.96;;;5.80;72.72
74079;BME280;62437;51.544;-3.276;2023-03-26T10:33:35;99993.19;;;6.34;71.72
74079;BME280;62437;51.544;-3.276;2023-03-26T10:38:26;100008.58;;;5.81;71.34
74079;BME280;62437;51.544;-3.276;2023-03-26T10:40:57;100011.16;;;7.09;71.41
74079;BME280;62437;51.544;-3.276;2023-03-26T10:43:28;100017.41;;;6.30;70.55
74079;BME280;62437;51.544;-3.276;2023-03-26T10:45:47;100016.74;;;5.78;72.45
74079;BME280;62437;51.544;-3.276;2023-03-26T10:48:18;100026.08;;;6.74;69.13
74079;BME280;62437;51.544;-3.276;2023-03-26T10:52:58;100039.56;;;5.87;71.67
74079;BME280;62437;51.544;-3.276;2023-03-26T10:55:23;100052.91;;;5.82;72.32
74079;BME280;62437;51.544;-3.276;2023-03-26T10:57:48;100055.23;;;7.62;68.09
74079;BME280;62437;51.544;-3.276;2023-03-26T11:00:16;100064.08;;;7.17;66.26
74079;BME280;62437;51.544;-3.276;2023-03-26T11:02:39;100068.70;;;6.58;67.26
74079;BME280;62437;51.544;-3.276;2023-03-26T11:05:19;100074.28;;;6.07;69.72
74079;BME280;62437;51.544;-3.276;2023-03-26T11:07:33;100080.39;;;5.73;72.51
74079;BME280;62437;51.544;-3.276;2023-03-26T11:09:59;100081.21;;;6.28;70.33
74079;BME280;62437;51.544;-3.276;2023-03-26T11:12:26;100086.95;;;6.71;69.43
74079;BME280;62437;51.544;-3.276;2023-03-26T11:14:51;100094.30;;;5.60;74.05
74079;BME280;62437;51.544;-3.276;2023-03-26T11:17:18;100099.79;;;4.93;76.50
74079;BME280;62437;51.544;-3.276;2023-03-26T11:19:41;100104.49;;;5.83;76.73
74079;BME280;62437;51.544;-3.276;2023-03-26T11:22:07;100114.97;;;5.08;76.80
74079;BME280;62437;51.544;-3.276;2023-03-26T11:26:55;100128.17;;;5.19;75.75
74079;BME280;62437;51.544;-3.276;2023-03-26T11:29:31;100128.56;;;5.51;75.57
74079;BME280;62437;51.544;-3.276;2023-03-26T11:31:53;100142.73;;;5.63;74.19
74079;BME280;62437;51.544;-3.276;2023-03-26T11:34:14;100149.46;;;5.42;74.74
74079;BME280;62437;51.544;-3.276;2023-03-26T11:36:41;100150.62;;;6.88;72.60
74079;BME280;62437;51.544;-3.276;2023-03-26T11:39:05;100155.16;;;6.83;72.21
74079;BME280;62437;51.544;-3.276;2023-03-26T11:41:29;100164.08;;;6.34;73.17
74079;BME280;62437;51.544;-3.276;2023-03-26T11:43:58;100180.51;;;6.14;72.03
74079;BME280;62437;51.544;-3.276;2023-03-26T11:46:22;100195.82;;;5.63;73.08
74079;BME280;62437;51.544;-3.276;2023-03-26T11:48:47;100199.25;;;6.06;72.29
74079;BME280;62437;51.544;-3.276;2023-03-26T11:51:15;100206.57;;;7.22;69.19
74079;BME280;62437;51.544;-3.276;2023-03-26T11:53:37;100209.94;;;6.84;69.03
74079;BME280;62437;51.544;-3.276;2023-03-26T11:56:05;100220.16;;;6.41;71.48
74079;BME280;62437;51.544;-3.276;2023-03-26T11:58:31;100233.49;;;5.29;72.28
74079;BME280;62437;51.544;-3.276;2023-03-26T12:00:53;100233.89;;;6.02;71.80
74079;BME280;62437;51.544;-3.276;2023-03-26T12:03:19;100242.87;;;5.37;72.62
74079;BME280;62437;51.544;-3.276;2023-03-26T12:05:47;100252.07;;;6.19;72.98
74079;BME280;62437;51.544;-3.276;2023-03-26T12:08:17;100258.14;;;5.37;73.11
74079;BME280;62437;51.544;-3.276;2023-03-26T12:10:38;100277.03;;;5.51;72.85
74079;BME280;62437;51.544;-3.276;2023-03-26T12:15:29;100283.87;;;5.77;71.43
74079;BME280;62437;51.544;-3.276;2023-03-26T12:17:55;100296.65;;;5.52;72.26
74079;BME280;62437;51.544;-3.276;2023-03-26T12:20:32;100306.30;;;5.02;71.51
74079;BME280;62437;51.544;-3.276;2023-03-26T12:22:45;100313.51;;;5.59;70.65
74079;BME280;62437;51.544;-3.276;2023-03-26T12:25:15;100317.24;;;5.63;71.04
74079;BME280;62437;51.544;-3.276;2023-03-26T12:27:39;100322.82;;;5.21;71.70
74079;BME280;62437;51.544;-3.276;2023-03-26T12:30:09;100333.01;;;4.82;72.68
74079;BME280;62437;51.544;-3.276;2023-03-26T12:32:31;100332.22;;;5.35;72.95
74079;BME280;62437;51.544;-3.276;2023-03-26T12:34:53;100331.97;;;6.20;70.70
74079;BME280;62437;51.544;-3.276;2023-03-26T12:37:33;100341.62;;;4.99;72.34
74079;BME280;62437;51.544;-3.276;2023-03-26T12:39:44;100347.79;;;5.02;71.68
74079;BME280;62437;51.544;-3.276;2023-03-26T12:44:43;100377.85;;;5.20;70.31
74079;BME280;62437;51.544;-3.276;2023-03-26T12:47:13;100385.61;;;4.76;72.21
74079;BME280;62437;51.544;-3.276;2023-03-26T12:49:27;100395.00;;;5.05;75.96
74079;BME280;62437;51.544;-3.276;2023-03-26T12:51:57;100399.68;;;4.83;72.56
74079;BME280;62437;51.544;-3.276;2023-03-26T12:54:32;100406.83;;;5.16;71.69
74079;BME280;62437;51.544;-3.276;2023-03-26T12:56:51;100413.90;;;5.16;71.66
74079;BME280;62437;51.544;-3.276;2023-03-26T12:59:19;100424.48;;;4.84;70.57
74079;BME280;62437;51.544;-3.276;2023-03-26T13:01:44;100422.20;;;5.18;71.06
74079;BME280;62437;51.544;-3.276;2023-03-26T13:04:16;100426.78;;;4.96;72.67
74079;BME280;62437;51.544;-3.276;2023-03-26T13:06:36;100428.52;;;5.19;73.08
74079;BME280;62437;51.544;-3.276;2023-03-26T13:11:24;100447.20;;;5.10;70.90
74079;BME280;62437;51.544;-3.276;2023-03-26T13:13:55;100451.35;;;5.01;70.68
74079;BME280;62437;51.544;-3.276;2023-03-26T13:16:15;100454.61;;;5.54;72.30
74079;BME280;62437;51.544;-3.276;2023-03-26T13:18:43;100461.76;;;5.83;74.49
74079;BME280;62437;51.544;-3.276;2023-03-26T13:21:07;100466.01;;;4.44;71.31
74079;BME280;62437;51.544;-3.276;2023-03-26T13:23:35;100466.06;;;5.30;72.80
74079;BME280;62437;51.544;-3.276;2023-03-26T13:26:00;100462.74;;;5.37;70.91
74079;BME280;62437;51.544;-3.276;2023-03-26T13:28:26;100459.75;;;4.68;69.44
74079;BME280;62437;51.544;-3.276;2023-03-26T13:30:49;100461.00;;;5.01;70.63
74079;BME280;62437;51.544;-3.276;2023-03-26T13:33:23;100461.33;;;5.58;70.12
74079;BME280;62437;51.544;-3.276;2023-03-26T13:35:39;100458.61;;;5.58;68.99
74079;BME280;62437;51.544;-3.276;2023-03-26T13:38:06;100456.12;;;5.84;68.68
74079;BME280;62437;51.544;-3.276;2023-03-26T13:40:35;100464.63;;;5.43;68.04
74079;BME280;62437;51.544;-3.276;2023-03-26T13:43:08;100473.82;;;5.66;67.26
74079;BME280;62437;51.544;-3.276;2023-03-26T13:45:31;100479.53;;;5.70;66.76
74079;BME280;62437;51.544;-3.276;2023-03-26T13:47:47;100491.40;;;5.56;68.22
74079;BME280;62437;51.544;-3.276;2023-03-26T13:50:19;100496.22;;;5.58;67.92